createdAt,value
2019-05-18T00:02:22.033Z,14.90
2019-05-18T00:04:49.256Z,14.90
2019-05-18T00:07:16.581Z,14.90
2019-05-18T00:09:43.850Z,14.90
2019-05-18T00:12:11.636Z,14.90
2019-05-18T00:14:38.730Z,14.90
2019-05-18T00:17:07.978Z,14.90
2019-05-18T00:19:37.588Z,15.00
2019-05-18T00:22:04.529Z,14.90
2019-05-18T00:24:33.221Z,14.90
2019-05-18T00:27:00.316Z,14.90
2019-05-18T00:29:27.542Z,14.90
2019-05-18T00:31:55.183Z,14.90
2019-05-18T00:34:22.864Z,14.90
2019-05-18T00:36:57.898Z,14.90
2019-05-18T00:39:25.367Z,14.90
2019-05-18T00:42:00.954Z,14.90
2019-05-18T00:44:28.545Z,14.90
2019-05-18T00:47:07.351Z,14.90
2019-05-18T00:49:34.254Z,14.90
2019-05-18T00:52:01.537Z,14.70
2019-05-18T00:54:28.985Z,14.80
2019-05-18T01:00:55.352Z,14.80
2019-05-18T01:03:22.244Z,14.80
2019-05-18T01:05:49.319Z,14.80
2019-05-18T01:08:15.937Z,14.80
2019-05-18T01:10:45.543Z,14.80
2019-05-18T01:13:12.721Z,14.70
2019-05-18T01:15:40.287Z,14.50
2019-05-18T01:18:07.596Z,14.50
2019-05-18T01:20:35.000Z,14.60
2019-05-18T01:23:01.873Z,14.60
2019-05-18T01:25:28.580Z,14.60
2019-05-18T01:27:56.584Z,14.70
2019-05-18T01:30:23.969Z,14.70
2019-05-18T01:32:50.921Z,14.70
2019-05-18T01:35:17.849Z,14.70
2019-05-18T01:37:44.792Z,14.70
2019-05-18T01:40:11.871Z,14.80
2019-05-18T01:42:44.377Z,14.80
2019-05-18T01:45:17.023Z,14.80
2019-05-18T01:47:40.642Z,14.70
2019-05-18T01:50:08.270Z,14.70
2019-05-18T01:52:35.568Z,14.70
2019-05-18T01:55:04.659Z,14.70
2019-05-18T01:57:31.662Z,14.80
2019-05-18T01:59:58.280Z,14.80
2019-05-18T02:02:25.101Z,14.70
2019-05-18T02:04:52.040Z,14.80
2019-05-18T02:07:19.108Z,14.70
2019-05-18T02:09:45.926Z,14.70
2019-05-18T02:12:12.868Z,14.70
2019-05-18T02:14:40.189Z,14.70
2019-05-18T02:17:07.273Z,14.70
2019-05-18T02:19:34.396Z,14.70
2019-05-18T02:22:01.122Z,14.80
2019-05-18T02:24:27.975Z,14.70
2019-05-18T02:26:54.772Z,14.70
2019-05-18T02:29:22.133Z,14.70
2019-05-18T02:31:50.338Z,14.70
2019-05-18T02:34:17.626Z,14.70
2019-05-18T02:36:44.604Z,14.70
2019-05-18T02:39:11.838Z,14.60
2019-05-18T02:41:39.011Z,14.70
2019-05-18T02:44:06.738Z,14.70
2019-05-18T02:46:34.320Z,14.60
2019-05-18T02:49:01.545Z,14.60
2019-05-18T02:51:28.492Z,14.60
2019-05-18T02:53:56.058Z,14.60
2019-05-18T02:56:22.733Z,14.60
2019-05-18T02:58:50.030Z,14.70
2019-05-18T03:01:17.402Z,14.70
2019-05-18T03:03:44.322Z,14.60
2019-05-18T03:06:11.357Z,14.60
2019-05-18T03:08:39.661Z,14.70
2019-05-18T03:11:06.916Z,14.60
2019-05-18T03:13:33.969Z,14.60
2019-05-18T03:16:01.382Z,14.60
2019-05-18T03:18:28.466Z,14.60
2019-05-18T03:20:55.389Z,14.60
2019-05-18T03:23:22.847Z,14.60
2019-05-18T03:25:50.227Z,14.60
2019-05-18T03:28:16.920Z,14.70
2019-05-18T03:30:43.628Z,14.50
2019-05-18T03:33:10.390Z,14.60
2019-05-18T03:35:37.297Z,14.60
2019-05-18T03:38:04.092Z,14.50
2019-05-18T03:40:30.739Z,14.60
2019-05-18T03:42:57.872Z,14.50
2019-05-18T03:45:42.320Z,14.50
2019-05-18T03:48:09.048Z,14.50
2019-05-18T03:50:36.024Z,14.50
2019-05-18T03:53:03.258Z,14.60
2019-05-18T03:55:30.761Z,14.60
2019-05-18T03:57:58.925Z,14.50
2019-05-18T04:00:25.861Z,14.50
2019-05-18T04:02:54.732Z,14.50
2019-05-18T04:05:21.897Z,14.50
2019-05-18T04:07:48.671Z,14.50
2019-05-18T04:10:26.608Z,14.50
2019-05-18T04:12:53.890Z,14.50
2019-05-18T04:15:21.461Z,14.50
2019-05-18T04:17:48.100Z,14.40
2019-05-18T04:20:15.011Z,14.40
2019-05-18T04:22:41.831Z,14.40
2019-05-18T04:25:08.733Z,14.50
2019-05-18T04:27:35.671Z,14.50
2019-05-18T04:30:04.965Z,14.50
2019-05-18T04:32:32.177Z,14.40
2019-05-18T04:34:59.215Z,14.40
2019-05-18T04:37:25.973Z,14.60
2019-05-18T04:39:53.435Z,14.40
2019-05-18T04:42:20.346Z,14.40
2019-05-18T04:44:47.759Z,14.40
2019-05-18T04:47:14.964Z,14.50
2019-05-18T04:49:41.894Z,14.50
2019-05-18T04:52:08.946Z,14.40
2019-05-18T04:54:35.577Z,14.50
2019-05-18T04:57:03.894Z,14.50
2019-05-18T04:59:31.008Z,14.50
2019-05-18T05:01:58.067Z,14.30
2019-05-18T05:04:25.664Z,14.20
2019-05-18T05:06:52.582Z,14.30
2019-05-18T05:09:19.756Z,14.30
2019-05-18T05:11:46.838Z,14.40
2019-05-18T05:14:13.931Z,14.50
2019-05-18T05:16:42.161Z,14.60
2019-05-18T05:19:08.983Z,14.70
2019-05-18T05:21:36.261Z,14.60
2019-05-18T05:24:03.211Z,14.60
2019-05-18T05:26:32.528Z,14.50
2019-05-18T05:28:59.590Z,14.50
2019-05-18T05:31:26.696Z,14.50
2019-05-18T05:33:53.650Z,14.40
2019-05-18T05:36:20.832Z,14.50
2019-05-18T05:38:47.735Z,14.60
2019-05-18T05:41:16.624Z,14.70
2019-05-18T05:43:43.302Z,14.70
2019-05-18T05:46:10.553Z,14.80
2019-05-18T05:48:37.522Z,14.90
2019-05-18T05:51:04.407Z,14.90
2019-05-18T05:53:31.398Z,14.80
2019-05-18T05:55:58.395Z,14.50
2019-05-18T05:58:29.077Z,14.50
2019-05-18T06:00:57.067Z,14.70
2019-05-18T06:03:23.832Z,14.70
2019-05-18T06:05:50.494Z,14.60
2019-05-18T06:08:17.596Z,14.60
2019-05-18T06:10:44.403Z,14.70
2019-05-18T06:13:11.415Z,14.80
2019-05-18T06:15:38.606Z,14.90
2019-05-18T06:18:05.823Z,14.90
2019-05-18T06:20:32.587Z,15.00
2019-05-18T06:22:59.552Z,15.00
2019-05-18T06:25:26.513Z,15.00
2019-05-18T06:27:53.179Z,15.20
2019-05-18T06:30:20.477Z,15.30
2019-05-18T06:32:48.267Z,15.30
2019-05-18T06:35:15.295Z,15.50
2019-05-18T06:37:42.473Z,15.50
2019-05-18T06:40:10.407Z,15.60
2019-05-18T06:42:40.225Z,15.70
2019-05-18T06:45:08.005Z,15.80
2019-05-18T06:47:34.700Z,15.90
2019-05-18T06:50:07.295Z,15.80
2019-05-18T06:52:34.317Z,15.80
2019-05-18T06:55:01.558Z,15.90
2019-05-18T06:57:28.965Z,15.80
2019-05-18T06:59:56.036Z,15.90
2019-05-18T07:02:22.839Z,16.00
2019-05-18T07:04:49.667Z,16.00
2019-05-18T07:07:16.962Z,16.00
2019-05-18T07:09:43.747Z,16.10
2019-05-18T07:12:10.667Z,16.20
2019-05-18T07:14:37.508Z,16.20
2019-05-18T07:17:04.270Z,16.30
2019-05-18T07:19:31.457Z,16.40
2019-05-18T07:21:58.386Z,16.40
2019-05-18T07:24:25.110Z,16.60
2019-05-18T07:26:51.979Z,16.60
2019-05-18T07:29:18.838Z,16.60
2019-05-18T07:31:45.540Z,16.40
2019-05-18T07:34:12.266Z,16.60
2019-05-18T07:36:38.904Z,16.60
2019-05-18T07:39:06.380Z,16.80
2019-05-18T07:41:45.828Z,16.90
2019-05-18T07:44:02.106Z,17.20
2019-05-18T07:46:28.645Z,17.30
2019-05-18T07:48:55.435Z,17.50
2019-05-18T07:51:36.084Z,17.60
2019-05-18T07:53:50.881Z,17.70
2019-05-18T07:56:17.704Z,17.80
2019-05-18T07:58:44.357Z,17.80
2019-05-18T08:01:11.191Z,17.80
2019-05-18T08:03:38.141Z,18.00
2019-05-18T08:06:05.965Z,17.90
2019-05-18T08:08:33.135Z,17.60
2019-05-18T08:10:59.817Z,17.40
2019-05-18T08:13:26.515Z,17.70
2019-05-18T08:15:53.153Z,18.00
2019-05-18T08:18:19.897Z,18.20
2019-05-18T08:20:47.757Z,18.50
2019-05-18T08:23:14.649Z,18.80
2019-05-18T08:25:41.409Z,18.80
2019-05-18T08:28:08.146Z,19.10
2019-05-18T08:30:36.999Z,19.30
2019-05-18T08:33:03.708Z,19.50
2019-05-18T08:35:30.187Z,19.90
2019-05-18T08:37:57.224Z,20.20
2019-05-18T08:40:23.790Z,20.40
2019-05-18T08:42:55.632Z,20.60
2019-05-18T08:45:22.288Z,20.50
2019-05-18T08:47:48.860Z,20.80
2019-05-18T08:50:15.588Z,20.90
2019-05-18T08:52:42.082Z,21.00
2019-05-18T08:55:09.365Z,20.80
2019-05-18T08:57:35.995Z,21.00
2019-05-18T09:00:04.734Z,21.40
2019-05-18T09:02:31.490Z,21.60
2019-05-18T09:04:57.948Z,21.80
2019-05-18T09:07:24.688Z,22.10
2019-05-18T09:09:51.363Z,22.40
2019-05-18T09:12:17.950Z,22.60
2019-05-18T09:14:44.519Z,22.60
2019-05-18T09:17:11.045Z,22.60
2019-05-18T09:19:37.748Z,22.70
2019-05-18T09:22:04.439Z,22.30
2019-05-18T09:24:30.952Z,21.90
2019-05-18T09:26:57.788Z,21.40
2019-05-18T09:29:25.540Z,20.90
2019-05-18T09:31:52.977Z,20.40
2019-05-18T09:34:19.908Z,20.40
2019-05-18T09:36:48.621Z,20.10
2019-05-18T09:39:16.273Z,20.10
2019-05-18T09:41:45.081Z,20.00
2019-05-18T09:44:12.297Z,20.00
2019-05-18T09:46:39.023Z,20.20
2019-05-18T09:49:07.840Z,20.30
2019-05-18T09:51:34.884Z,20.50
2019-05-18T09:54:01.737Z,20.20
2019-05-18T09:56:31.148Z,20.10
2019-05-18T09:58:57.678Z,20.40
2019-05-18T10:01:24.355Z,20.90
2019-05-18T10:03:50.910Z,21.30
2019-05-18T10:06:17.466Z,21.60
2019-05-18T10:08:44.195Z,21.90
2019-05-18T10:11:10.846Z,21.90
2019-05-18T10:13:37.582Z,21.90
2019-05-18T10:16:04.273Z,21.70
2019-05-18T10:18:30.759Z,22.00
2019-05-18T10:20:57.397Z,22.40
2019-05-18T10:23:24.997Z,22.60
2019-05-18T10:25:51.507Z,22.80
2019-05-18T10:28:19.127Z,22.90
2019-05-18T10:30:45.754Z,23.40
2019-05-18T10:33:12.436Z,23.70
2019-05-18T10:35:38.906Z,24.20
2019-05-18T10:38:05.500Z,24.50
2019-05-18T10:40:32.139Z,25.30
2019-05-18T10:42:58.615Z,26.10
2019-05-18T10:45:27.197Z,26.90
2019-05-18T10:47:53.490Z,28.00
2019-05-18T10:50:20.038Z,28.50
2019-05-18T10:52:46.689Z,29.30
2019-05-18T10:55:14.030Z,30.00
2019-05-18T10:57:40.764Z,30.70
2019-05-18T11:00:09.347Z,30.30
2019-05-18T11:02:36.168Z,30.70
2019-05-18T11:05:05.422Z,30.90
2019-05-18T11:07:45.169Z,30.90
2019-05-18T11:10:13.711Z,31.20
2019-05-18T11:12:40.295Z,31.60
2019-05-18T11:15:09.215Z,31.40
2019-05-18T11:17:35.834Z,31.30
2019-05-18T11:20:07.419Z,31.70
2019-05-18T11:22:34.014Z,31.40
2019-05-18T11:25:01.710Z,30.00
2019-05-18T11:27:28.420Z,29.80
2019-05-18T11:29:54.904Z,29.50
2019-05-18T11:32:21.499Z,28.90
2019-05-18T11:34:48.159Z,28.20
2019-05-18T11:37:15.038Z,27.60
2019-05-18T11:39:41.845Z,27.20
2019-05-18T11:42:10.182Z,26.70
2019-05-18T11:44:38.022Z,26.40
2019-05-18T11:47:04.772Z,26.50
2019-05-18T11:49:31.469Z,26.50
2019-05-18T11:51:57.957Z,26.30
2019-05-18T11:54:24.565Z,26.20
2019-05-18T11:56:50.937Z,25.80
2019-05-18T11:59:17.551Z,25.90
2019-05-18T12:01:46.042Z,25.80
2019-05-18T12:04:16.442Z,25.50
2019-05-18T12:06:43.897Z,25.40
2019-05-18T12:09:11.452Z,25.20
2019-05-18T12:11:38.139Z,25.20
2019-05-18T12:14:24.641Z,25.40
2019-05-18T12:16:51.215Z,25.60
2019-05-18T12:19:19.436Z,25.70
2019-05-18T12:21:47.712Z,26.00
2019-05-18T12:24:15.936Z,25.80
2019-05-18T12:26:43.778Z,25.80
2019-05-18T12:29:10.265Z,25.60
2019-05-18T12:31:36.662Z,25.40
2019-05-18T12:34:03.246Z,25.30
2019-05-18T12:36:29.697Z,25.70
2019-05-18T12:38:58.257Z,25.90
2019-05-18T12:41:29.522Z,26.10
2019-05-18T12:43:56.199Z,24.90
2019-05-18T12:46:22.712Z,26.10
2019-05-18T12:48:49.417Z,26.20
2019-05-18T12:51:16.162Z,26.00
2019-05-18T12:53:42.668Z,26.00
2019-05-18T12:56:09.219Z,25.90
2019-05-18T12:58:37.688Z,25.50
2019-05-18T13:01:04.554Z,25.60
2019-05-18T13:03:31.447Z,25.70
2019-05-18T13:05:57.916Z,25.80
2019-05-18T13:08:24.765Z,25.90
2019-05-18T13:10:51.178Z,26.00
2019-05-18T13:13:17.690Z,25.90
2019-05-18T13:15:44.415Z,25.90
2019-05-18T13:18:12.328Z,26.10
2019-05-18T13:20:39.182Z,26.20
2019-05-18T13:23:05.842Z,26.10
2019-05-18T13:25:32.451Z,25.70
2019-05-18T13:27:58.893Z,25.30
2019-05-18T13:30:25.748Z,25.20
2019-05-18T13:32:52.482Z,25.20
2019-05-18T13:35:19.845Z,25.40
2019-05-18T13:37:46.573Z,25.50
2019-05-18T13:40:13.787Z,25.20
2019-05-18T13:42:40.366Z,25.10
2019-05-18T13:45:08.081Z,25.30
2019-05-18T13:47:34.756Z,25.20
2019-05-18T13:50:01.552Z,25.40
2019-05-18T13:52:28.364Z,25.30
2019-05-18T13:55:03.711Z,25.40
2019-05-18T13:57:23.243Z,25.40
2019-05-18T13:59:49.825Z,25.40
2019-05-18T14:02:16.866Z,25.40
2019-05-18T14:04:43.787Z,25.40
2019-05-18T14:07:10.639Z,25.40
2019-05-18T14:09:37.268Z,25.20
2019-05-18T14:12:03.802Z,25.30
2019-05-18T14:14:30.663Z,25.20
2019-05-18T14:16:58.720Z,25.10
2019-05-18T14:19:25.466Z,25.10
2019-05-18T14:21:52.509Z,25.20
2019-05-18T14:24:19.213Z,25.10
2019-05-18T14:26:46.007Z,25.00
2019-05-18T14:29:13.166Z,25.10
2019-05-18T14:31:40.117Z,24.80
2019-05-18T14:34:07.089Z,24.90
2019-05-18T14:36:34.073Z,25.10
2019-05-18T14:39:01.145Z,25.20
2019-05-18T14:41:28.379Z,25.20
2019-05-18T14:43:55.366Z,25.30
2019-05-18T14:46:22.254Z,25.30
2019-05-18T14:48:49.217Z,25.20
2019-05-18T14:51:16.576Z,25.20
2019-05-18T14:53:44.746Z,25.10
2019-05-18T14:56:12.112Z,25.10
2019-05-18T14:58:39.130Z,25.00
2019-05-18T15:01:06.301Z,25.10
2019-05-18T15:03:33.246Z,25.00
2019-05-18T15:05:59.973Z,24.90
2019-05-18T15:08:28.393Z,25.00
2019-05-18T15:10:54.924Z,25.00
2019-05-18T15:13:21.503Z,25.10
2019-05-18T15:15:49.227Z,24.90
2019-05-18T15:18:16.039Z,24.90
2019-05-18T15:20:42.594Z,24.90
2019-05-18T15:23:09.222Z,24.80
2019-05-18T15:25:49.526Z,24.90
2019-05-18T15:28:04.534Z,24.90
2019-05-18T15:30:32.273Z,24.90
2019-05-18T15:32:58.958Z,24.90
2019-05-18T15:35:25.763Z,24.80
2019-05-18T15:37:52.315Z,24.70
2019-05-18T15:40:18.978Z,24.80
2019-05-18T15:42:45.689Z,24.60
2019-05-18T15:45:12.632Z,24.50
2019-05-18T15:47:39.296Z,24.40
2019-05-18T15:50:06.950Z,24.40
2019-05-18T15:52:34.099Z,24.50
2019-05-18T15:55:01.146Z,24.30
2019-05-18T15:57:28.107Z,24.40
2019-05-18T15:59:54.739Z,24.30
2019-05-18T16:02:21.457Z,24.40
2019-05-18T16:04:48.165Z,24.20
2019-05-18T16:07:15.048Z,24.20
2019-05-18T16:09:41.766Z,24.40
2019-05-18T16:12:08.222Z,24.20
2019-05-18T16:14:35.002Z,24.30
2019-05-18T16:17:01.665Z,24.30
2019-05-18T16:19:28.279Z,24.40
2019-05-18T16:21:54.795Z,24.40
2019-05-18T16:24:21.468Z,24.50
2019-05-18T16:26:48.250Z,24.70
2019-05-18T16:29:15.087Z,24.60
2019-05-18T16:31:41.843Z,24.60
2019-05-18T16:34:10.116Z,24.40
2019-05-18T16:36:36.628Z,24.30
2019-05-18T16:39:05.580Z,24.30
2019-05-18T16:41:32.579Z,24.20
2019-05-18T16:43:59.070Z,24.10
2019-05-18T16:46:25.576Z,24.10
2019-05-18T16:48:53.955Z,24.00
2019-05-18T16:51:20.669Z,24.00
2019-05-18T16:53:50.218Z,23.90
2019-05-18T16:56:15.681Z,23.50
2019-05-18T16:58:42.327Z,23.40
2019-05-18T17:01:09.460Z,23.30
2019-05-18T17:03:36.319Z,23.60
2019-05-18T17:06:03.058Z,23.40
2019-05-18T17:08:29.713Z,23.40
2019-05-18T17:10:56.261Z,23.40
2019-05-18T17:13:22.766Z,23.30
2019-05-18T17:15:49.916Z,23.40
2019-05-18T17:18:17.788Z,23.50
2019-05-18T17:20:44.796Z,23.40
2019-05-18T17:23:11.725Z,23.30
2019-05-18T17:25:38.313Z,23.20
2019-05-18T17:28:05.065Z,23.10
2019-05-18T17:30:32.609Z,23.20
2019-05-18T17:32:59.341Z,23.20
2019-05-18T17:35:25.992Z,23.00
2019-05-18T17:37:52.511Z,23.00
2019-05-18T17:40:19.619Z,22.30
2019-05-18T17:42:47.014Z,22.50
2019-05-18T17:45:13.815Z,22.50
2019-05-18T17:47:40.410Z,22.90
2019-05-18T17:50:07.889Z,22.80
2019-05-18T17:52:34.544Z,22.80
2019-05-18T17:55:05.546Z,22.70
2019-05-18T17:57:29.568Z,22.50
2019-05-18T17:59:56.214Z,22.70
2019-05-18T18:02:22.747Z,22.50
2019-05-18T18:04:49.467Z,22.60
2019-05-18T18:07:16.333Z,22.60
2019-05-18T18:09:42.781Z,22.90
2019-05-18T18:12:09.556Z,22.60
2019-05-18T18:14:36.198Z,22.70
2019-05-18T18:17:04.877Z,22.80
2019-05-18T18:19:31.620Z,22.70
2019-05-18T18:21:58.085Z,22.80
2019-05-18T18:24:24.653Z,22.80
2019-05-18T18:26:51.418Z,22.80
2019-05-18T18:29:17.969Z,22.80
2019-05-18T18:31:46.053Z,22.70
2019-05-18T18:34:12.594Z,22.60
2019-05-18T18:36:39.196Z,22.50
2019-05-18T18:39:06.975Z,22.40
2019-05-18T18:41:33.906Z,22.30
2019-05-18T18:44:01.900Z,22.40
2019-05-18T18:46:28.426Z,22.50
2019-05-18T18:48:55.168Z,22.20
2019-05-18T18:51:21.900Z,22.20
2019-05-18T18:53:50.389Z,22.30
2019-05-18T18:56:17.535Z,22.00
2019-05-18T18:58:44.063Z,21.80
2019-05-18T19:01:10.817Z,21.70
2019-05-18T19:03:37.694Z,21.60
2019-05-18T19:06:05.503Z,21.80
2019-05-18T19:08:32.194Z,21.90
2019-05-18T19:10:58.574Z,22.00
2019-05-18T19:13:25.232Z,22.10
2019-05-18T19:15:51.901Z,21.90
2019-05-18T19:18:18.431Z,21.90
2019-05-18T19:20:45.126Z,21.80
2019-05-18T19:23:11.636Z,21.90
2019-05-18T19:25:38.148Z,22.00
2019-05-18T19:28:04.512Z,21.60
2019-05-18T19:30:32.330Z,21.80
2019-05-18T19:32:58.913Z,21.90
2019-05-18T19:35:25.573Z,21.80
2019-05-18T19:37:52.470Z,21.80
2019-05-18T19:40:19.456Z,21.70
2019-05-18T19:42:46.098Z,21.70
2019-05-18T19:45:13.003Z,21.70
2019-05-18T19:47:39.678Z,21.70
2019-05-18T19:50:07.245Z,21.60
2019-05-18T19:52:33.986Z,21.60
2019-05-18T19:55:00.842Z,21.60
2019-05-18T19:57:29.447Z,21.60
2019-05-18T19:59:56.226Z,21.50
2019-05-18T20:02:22.710Z,21.60
2019-05-18T20:05:06.550Z,21.60
2019-05-18T20:07:18.491Z,21.50
2019-05-18T20:09:44.931Z,21.50
2019-05-18T20:12:11.543Z,21.40
2019-05-18T20:14:38.045Z,21.30
2019-05-18T20:17:04.566Z,21.30
2019-05-18T20:19:39.210Z,21.10
2019-05-18T20:21:59.621Z,21.20
2019-05-18T20:24:26.190Z,21.20
2019-05-18T20:26:52.746Z,21.20
2019-05-18T20:29:19.715Z,21.20
2019-05-18T20:31:46.132Z,21.10
2019-05-18T20:34:12.507Z,21.10
2019-05-18T20:36:40.063Z,21.10
2019-05-18T20:39:06.406Z,21.10
2019-05-18T20:41:33.123Z,21.10
2019-05-18T20:43:59.493Z,21.00
2019-05-18T20:46:29.207Z,21.00
2019-05-18T20:48:55.724Z,21.00
2019-05-18T20:51:22.526Z,21.00
2019-05-18T20:53:48.869Z,20.90
2019-05-18T20:56:15.417Z,21.00
2019-05-18T20:58:42.338Z,21.10
2019-05-18T21:01:08.986Z,21.10
2019-05-18T21:03:35.797Z,21.10
2019-05-18T21:06:02.671Z,21.00
2019-05-18T21:08:29.177Z,21.00
2019-05-18T21:10:55.737Z,20.90
2019-05-18T21:13:22.373Z,20.90
2019-05-18T21:15:48.869Z,20.90
2019-05-18T21:18:15.672Z,20.90
2019-05-18T21:20:42.180Z,20.80
2019-05-18T21:23:09.182Z,20.80
2019-05-18T21:25:36.705Z,20.70
2019-05-18T21:28:03.223Z,20.70
2019-05-18T21:30:29.860Z,20.70
2019-05-18T21:32:56.502Z,20.70
2019-05-18T21:35:23.219Z,20.70
2019-05-18T21:37:49.835Z,20.60
2019-05-18T21:40:18.319Z,20.60
2019-05-18T21:42:46.075Z,20.60
2019-05-18T21:45:12.904Z,20.50
2019-05-18T21:47:39.524Z,20.50
2019-05-18T21:50:06.705Z,20.50
2019-05-18T21:52:33.963Z,20.50
2019-05-18T21:55:00.797Z,20.40
2019-05-18T21:57:27.449Z,20.40
2019-05-18T21:59:54.116Z,20.40
2019-05-18T22:02:21.383Z,20.30
2019-05-18T22:04:48.122Z,20.30
2019-05-18T22:07:14.745Z,20.30
2019-05-18T22:09:42.593Z,20.30
2019-05-18T22:12:15.991Z,20.30
2019-05-18T22:14:42.747Z,20.20
2019-05-18T22:17:09.451Z,20.20
2019-05-18T22:19:36.072Z,20.10
2019-05-18T22:22:04.841Z,20.00
2019-05-18T22:24:31.460Z,20.10
2019-05-18T22:26:58.135Z,20.10
2019-05-18T22:29:25.050Z,20.10
2019-05-18T22:31:51.991Z,20.10
2019-05-18T22:34:18.604Z,20.00
2019-05-18T22:36:45.386Z,20.00
2019-05-18T22:39:13.342Z,20.00
2019-05-18T22:41:39.910Z,20.00
2019-05-18T22:44:06.638Z,19.80
2019-05-18T22:46:33.359Z,19.90
2019-05-18T22:49:00.374Z,19.90
2019-05-18T22:51:28.423Z,19.90
2019-05-18T22:53:55.011Z,19.80
2019-05-18T22:56:21.765Z,19.80
2019-05-18T22:58:48.512Z,19.70
2019-05-18T23:01:15.312Z,19.70
2019-05-18T23:03:41.874Z,19.80
2019-05-18T23:06:08.510Z,19.80
2019-05-18T23:08:36.404Z,19.80
2019-05-18T23:11:03.159Z,19.60
2019-05-18T23:13:29.739Z,19.60
2019-05-18T23:15:56.389Z,19.70
2019-05-18T23:18:23.216Z,19.70
2019-05-18T23:20:49.745Z,19.70
2019-05-18T23:23:16.319Z,19.60
2019-05-18T23:25:42.966Z,19.60
2019-05-18T23:28:09.442Z,19.60
2019-05-18T23:30:36.288Z,19.50
2019-05-18T23:33:03.970Z,19.60
2019-05-18T23:35:30.919Z,19.60
2019-05-18T23:37:57.730Z,19.60
2019-05-18T23:40:24.380Z,19.50
2019-05-18T23:42:50.875Z,19.50
2019-05-18T23:45:17.519Z,19.50
2019-05-18T23:47:44.286Z,19.50
2019-05-18T23:50:11.372Z,19.40
2019-05-18T23:52:38.200Z,19.40
2019-05-18T23:55:05.100Z,19.40
2019-05-18T23:57:32.073Z,19.30
2019-05-18T23:59:58.710Z,19.30
